close menu
Login
Remember me Help

BlitzPlan Free Tools - Flightplan Visualizer

Help Help

Your own flightplan   Sample flightplans
Please insert your flightplan here
For instant fully valid FPL please register for MT-BlitzPlan.
  ... or click to view examples

 

EDMA - LDZD
N0170F180 SID MAH L173 MUN M867 VAROB DCT ALIVO P151 CRE L607 ULPIN STAR

Visualize Flightplan


Radar & average Jetfuel prices

Show current weather overlay (meteox.com) Show fuel prices

 

price >= 2.20 €   price >= 1.80 €   price >= 1.40 €   price >= 1.00 €   price <  1.00 €

Info
Shown fuel prices are average prices and should be used for reference only. They may differ from actual day prices. Althoug VAT is included, additional taxes or sur charges maybe applied in certain countries.
Fuel prices ar shown for airports (radius: nm for DEP, DEST, ALT1, ALT2) and enroute (radius nm for each waypoint)

RouteListing

              SPEED     DIST(NM) TIME FUEL()
Waypoint Ident
Coordinates
Power AWY
FL
MEA TC
MC
MH TAS
GS
WD
WV
OAT Leg
Rem.
ETE
Rem.
FP TO
ETO
RETO
ATO
Leg
Rem
Plan
Act.
FFlow
/h
EDMA(ED)
N 48° 25.30'
E 010° 55.54'
climb
F020
F015



340.1

01:51
10:00Z
 
 
0.0
 0.0
MAH(ED)
N 48° 15.48'
E 011° 18.42'
climbSID
F200
F195122°
120°
116°110
136
320°
27
-22°C18.0
322.1
00:08
01:43
10:08Z
 
 
0.0
 0.0
MUN(ED)
N 48° 10.49'
E 011° 48.57'
Top Of Climb
climbL173
F180
F040104°
102°
92°110
130
322°
28
-22°C20.8
301.3
00:10
01:34
10:18Z
 
 
0.0
 0.0
TAKEX(ED)
N 48° 06.25'
E 011° 55.03'
cruiseM867
F180
F050137°
135°
134°170
198
323°
28
-22°C6.0
295.4
00:02
01:32
10:19Z
 
 
0.0
 0.0
VAVOR(ED)
N 47° 56.03'
E 012° 09.16'
cruiseM867
F180
F050137°
135°
134°170
198
325°
28
-22°C14.1
281.3
00:04
01:28
10:24Z
 
 
0.0
 0.0
PITAR(ED)
N 47° 43.02'
E 012° 25.33'
cruiseM867
F180
F095140°
138°
136°170
197
329°
28
-22°C17.0
264.3
00:05
01:22
10:29Z
 
 
0.0
 0.0
VAROB(LO)
N 47° 37.34'
E 012° 32.19'
cruiseM867
F180
F100140°
138°
136°170
197
330°
28
-22°C7.1
257.2
00:02
01:20
10:31Z
 
 
0.0
 0.0
ALIVO(LD)
N 45° 31.24'
E 014° 44.20'
cruiseDCT
F180
F180143°
141°
132°170
197

39
-21°C155.4
101.8
00:47
00:33
11:18Z
 
 
0.0
 0.0
RJK(LD)
N 45° 13.26'
E 014° 34.01'
cruiseP151
F180
F080202°
199°
203°170
208

40
-21°C19.4
82.4
00:06
00:27
11:24Z
 
 
0.0
 0.0
CRE(LD)
N 44° 54.10'
E 014° 24.59'
Top Of Descent
cruiseP151
F180
F040198°
196°
198°170
209

40
-21°C20.3
62.1
00:06
00:22
11:30Z
 
 
0.0
 0.0
ULPIN(LD)
N 44° 42.13'
E 014° 39.14'
descentL607
F140
F040140°
137°
127°170
195

41
-14°C15.7
46.4
00:05
00:17
11:35Z
 
 
0.0
 0.0
LDZD(LD)
N 44° 06.29'
E 015° 20.48'
descentSTAR
F003140°
137°
134°170
167

46.5
0
00:17
00:00
11:51Z
 
 
0.0
 0.0
ROUTE SUBTOTAL 340.1 01:51    
Great circle distance and elapsed time with FPL TAS N170: 317.1 02:01  
Last weather update: 2018-01-23 12:00 +06hr

Flightlevel Profile

Legend
AWY:Airway, FL:Flightlevel, MEA:Minimum Enroute Altitude, TC:True course, MC:Magnetic course, MH:Magnetic heading, TAS=True air speed, GS=Ground speed, WD=Wind direction, WV=Wind velocity(KTS), OAT=Outside air temperature, FP TO=Flight planned time over, ETO=Estimated time over, RETO=Reestimated time over, ATO=Actual time over, Fuel in , FFlow in /h, ATA=Actual time arrival, ATE=Actual time enroute. AirTemp is displayed with "--" if not available; Groundspeed is displayed with "--" if wind is too strong.
Overhead: For each FL10 30sec are added to first Waypoint (Requested Flightlevel/10 * 30sec)

CFMU Flightplan

(FPL
-DEMO
-IG
-1C525/L
-SYRW/S
-EDMA1000
-N0170F180 SID MAH L173 MUN M867 VAROB DCT ALIVO P151 CRE L607 ULPIN STAR
-LDZD0121 LSZA
-DOF/180124 )

Status Messages

Date Type MSG
Status messages only available for registered users.

Slot Messages

Date Type Dep Dest EOBD EOBT Taxitime CTOT Regul RegCause Comment
Slot messages only available for registered users.

METAR/TAF

APT Type Info
EDMAMETAREDMA 232320Z AUTO 17005KT 9999 // FEW170/// 01/M00 Q1026
EDMATAFTAF EDMA 232102Z 2321/2403 CNL
LDZDMETARLDZD 232330Z 13003KT CAVOK 04/M02 Q1030
LDZDTAFLDZD 231725Z 2318/2418 09005KT CAVOK TX13/2413Z TNM01/2406Z BECMG 2410/2412 32009KT
LSZAMETARLSZA 232320Z AUTO VRB01KT 3300 BR NCD 01/01 Q1031
LSZATAFAMD TAF AMD LSZA 232054Z 2320/2324 CNL

21st Operational Weather Squadron Five Day Forecast

Get full access to BlitzPlan

You are currently using the free section of BlitzPlan, which is limited. Register for MT-BlitzPlan or call for an introduction to get full access with all features.
Moving Terrain: + 49 (0) 8376 - 9214-0